createdAt,value
2019-05-09T00:03:50.209Z,8
2019-05-09T00:08:53.254Z,7.9
2019-05-09T00:13:54.778Z,7.9
2019-05-09T00:18:57.063Z,7.8
2019-05-09T00:23:59.399Z,7.8
2019-05-09T00:29:03.748Z,7.8
2019-05-09T00:34:04.308Z,7.8
2019-05-09T00:39:06.286Z,7.7
2019-05-09T00:44:08.707Z,7.7
2019-05-09T00:49:10.959Z,7.7
2019-05-09T00:54:13.590Z,7.7
2019-05-09T00:59:15.616Z,7.6
2019-05-09T01:04:17.785Z,7.7
2019-05-09T01:09:20.046Z,7.6
2019-05-09T01:14:23.376Z,7.6
2019-05-09T01:19:24.758Z,7.6
2019-05-09T01:24:26.910Z,7.6
2019-05-09T01:29:29.295Z,7.5
2019-05-09T01:34:33.136Z,7.5
2019-05-09T01:39:33.808Z,7.5
2019-05-09T01:44:36.151Z,7.5
2019-05-09T01:49:38.298Z,7.4
2019-05-09T01:54:40.644Z,7.4
2019-05-09T01:59:44.360Z,7.4
2019-05-09T02:04:45.373Z,7.3
2019-05-09T02:09:47.625Z,7.3
2019-05-09T02:14:49.813Z,7.2
2019-05-09T02:19:53.272Z,7.3
2019-05-09T02:24:55.213Z,7.3
2019-05-09T02:29:56.774Z,7.3
2019-05-09T02:34:58.959Z,7.2
2019-05-09T02:40:01.431Z,7.2
2019-05-09T02:45:03.798Z,7.2
2019-05-09T02:50:08.954Z,7.2
2019-05-09T02:55:09.806Z,7.1
2019-05-09T03:00:10.741Z,7.1
2019-05-09T03:05:12.873Z,7.1
2019-05-09T03:10:15.089Z,7.1
2019-05-09T03:15:18.618Z,7.1
2019-05-09T03:20:19.655Z,7.1
2019-05-09T03:25:21.983Z,7.2
2019-05-09T03:30:24.212Z,7.2
2019-05-09T03:35:27.611Z,7.2
2019-05-09T03:40:28.914Z,7.2
2019-05-09T03:45:31.171Z,7.2
2019-05-09T03:50:33.622Z,7.2
2019-05-09T03:55:38.195Z,7.2
2019-05-09T04:00:38.147Z,7.1
2019-05-09T04:05:54.469Z,7.2
2019-05-09T04:10:42.593Z,7.1
2019-05-09T04:15:44.939Z,7.1
2019-05-09T04:20:48.233Z,7.1
2019-05-09T04:25:49.460Z,7.1
2019-05-09T04:30:51.772Z,7.1
2019-05-09T04:35:57.773Z,7.2
2019-05-09T04:40:58.350Z,7.2
2019-05-09T04:45:58.768Z,7.2
2019-05-09T04:51:00.920Z,7.3
2019-05-09T04:56:07.121Z,7.3
2019-05-09T05:01:07.251Z,7.4
2019-05-09T05:06:07.929Z,7.5
2019-05-09T05:11:10.152Z,7.7
2019-05-09T05:16:12.421Z,7.8
2019-05-09T05:21:15.394Z,8.1
2019-05-09T05:26:18.288Z,8.4
2019-05-09T05:31:19.301Z,8.7
2019-05-09T05:36:21.690Z,8.8
2019-05-09T05:41:23.896Z,8.8
2019-05-09T05:46:28.424Z,8.8
2019-05-09T05:51:28.429Z,8.9
2019-05-09T05:56:30.708Z,9
2019-05-09T06:01:33.352Z,9
2019-05-09T06:06:37.326Z,9.2
2019-05-09T06:11:38.395Z,9.3
2019-05-09T06:16:39.882Z,9.5
2019-05-09T06:21:42.184Z,9.6
2019-05-09T06:26:44.500Z,10
2019-05-09T06:31:48.510Z,10.5
2019-05-09T06:36:49.260Z,10.9
2019-05-09T06:41:51.356Z,11
2019-05-09T06:46:53.743Z,11.3
2019-05-09T06:51:58.087Z,11.6
2019-05-09T06:56:58.627Z,11.9
2019-05-09T07:02:00.636Z,12.1
2019-05-09T07:07:02.950Z,12.2
2019-05-09T07:12:07.693Z,12.8
2019-05-09T07:17:08.430Z,13.3
2019-05-09T07:22:09.803Z,13.3
2019-05-09T07:27:12.017Z,13
2019-05-09T07:32:14.351Z,12.8
2019-05-09T07:37:18.625Z,12.5
2019-05-09T07:42:19.069Z,12.8
2019-05-09T07:47:21.692Z,12.9
2019-05-09T07:52:23.557Z,12.8
2019-05-09T07:57:28.355Z,12.7
2019-05-09T08:02:28.397Z,12.5
2019-05-09T08:07:30.469Z,12.4
2019-05-09T08:12:32.715Z,12.4
2019-05-09T08:17:35.081Z,12.4
2019-05-09T08:22:42.169Z,12.3
2019-05-09T08:27:39.731Z,12.4
2019-05-09T08:32:42.006Z,12.5
2019-05-09T08:37:44.222Z,12.5
2019-05-09T08:42:48.076Z,12.5
2019-05-09T08:47:48.731Z,12.4
2019-05-09T08:52:51.136Z,12.4
2019-05-09T08:57:53.541Z,12.3
2019-05-09T09:02:57.379Z,12.2
2019-05-09T09:07:58.125Z,12.2
2019-05-09T09:13:00.370Z,12.2
2019-05-09T09:18:02.996Z,12.3
2019-05-09T09:23:04.953Z,12.4
2019-05-09T09:28:08.784Z,12.6
2019-05-09T09:33:13.857Z,12.6
2019-05-09T09:38:11.875Z,12.7
2019-05-09T09:43:14.007Z,12.8
2019-05-09T09:48:18.029Z,13.1
2019-05-09T09:53:18.615Z,13.3
2019-05-09T09:58:20.984Z,13.4
2019-05-09T10:03:23.257Z,13.3
2019-05-09T10:08:25.503Z,13.3
2019-05-09T10:13:28.662Z,13.5
2019-05-09T10:18:30.210Z,13.8
2019-05-09T10:23:32.507Z,14.1
2019-05-09T10:28:34.748Z,14.3
2019-05-09T10:33:37.639Z,14.7
2019-05-09T10:38:39.598Z,15.1
2019-05-09T10:43:41.653Z,15.4
2019-05-09T10:48:43.886Z,15.1
2019-05-09T10:53:48.156Z,15.2
2019-05-09T10:58:48.549Z,15.4
2019-05-09T11:03:50.900Z,15.8
2019-05-09T11:08:53.022Z,17.1
2019-05-09T11:13:58.268Z,17.299999
2019-05-09T11:18:58.552Z,17.200001
2019-05-09T11:23:59.889Z,17
2019-05-09T11:29:04.010Z,16.700001
2019-05-09T11:34:04.498Z,16.4
2019-05-09T11:39:10.217Z,16
2019-05-09T11:44:09.021Z,17.299999
2019-05-09T11:49:12.366Z,18.4
2019-05-09T11:54:16.544Z,18.9
2019-05-09T11:59:18.254Z,18.799999
2019-05-09T12:04:18.898Z,17.9
2019-05-09T12:09:20.598Z,17
2019-05-09T12:20:18.260Z,16
2019-05-09T12:25:20.549Z,16.200001
2019-05-09T12:30:22.736Z,17.4
2019-05-09T12:35:25.140Z,18.6
2019-05-09T12:40:27.378Z,18.4
2019-05-09T12:45:29.733Z,17.799999
2019-05-09T12:50:32.159Z,17.6
2019-05-09T12:55:34.187Z,17.799999
2019-05-09T13:00:38.457Z,17.799999
2019-05-09T13:05:39.045Z,18.1
2019-05-09T13:10:41.205Z,18
2019-05-09T13:15:43.546Z,18.299999
2019-05-09T13:20:45.817Z,18.1
2019-05-09T13:25:50.347Z,17.700001
2019-05-09T13:30:50.353Z,17.200001
2019-05-09T13:35:52.714Z,16.9
2019-05-09T13:40:58.222Z,16.9
2019-05-09T13:45:58.807Z,16.700001
2019-05-09T13:50:59.487Z,16.799999
2019-05-09T13:56:01.867Z,17
2019-05-09T14:01:04.135Z,16.9
2019-05-09T14:06:08.988Z,16.799999
2019-05-09T14:11:08.781Z,16.799999
2019-05-09T14:16:19.940Z,17
2019-05-09T14:21:13.266Z,17
2019-05-09T14:26:17.900Z,16.700001
2019-05-09T14:31:18.635Z,16.299999
2019-05-09T14:36:20.134Z,16.1
2019-05-09T14:41:22.601Z,15.6
2019-05-09T14:46:24.780Z,15.2
2019-05-09T14:51:28.415Z,15.6
2019-05-09T14:56:29.313Z,16.4
2019-05-09T15:01:31.729Z,16
2019-05-09T15:06:33.917Z,15.5
2019-05-09T15:11:39.510Z,15.5
2019-05-09T15:16:39.375Z,15.8
2019-05-09T15:21:40.818Z,16.799999
2019-05-09T15:26:43.112Z,17
2019-05-09T15:31:52.891Z,16.299999
2019-05-09T15:36:48.381Z,15.9
2019-05-09T15:41:50.044Z,15.5
2019-05-09T15:46:52.235Z,15.1
2019-05-09T15:51:54.715Z,15
2019-05-09T15:56:58.079Z,14.8
2019-05-09T16:01:59.189Z,14.6
2019-05-09T16:07:01.473Z,14.3
2019-05-09T16:12:03.726Z,14.2
2019-05-09T16:17:07.885Z,14.1
2019-05-09T16:22:08.366Z,14
2019-05-09T16:27:10.694Z,13.9
2019-05-09T16:32:13.018Z,13.9
2019-05-09T16:37:15.974Z,13.9
2019-05-09T16:42:17.516Z,13.8
2019-05-09T16:47:21.538Z,13.8
2019-05-09T16:52:22.012Z,13.7
2019-05-09T16:57:24.413Z,13.6
2019-05-09T17:02:28.703Z,13.4
2019-05-09T17:12:31.194Z,12.5
2019-05-09T17:17:33.729Z,12.1
2019-05-09T17:22:38.119Z,12
2019-05-09T17:27:38.826Z,11.9
2019-05-09T17:32:40.520Z,11.9
2019-05-09T17:37:42.819Z,12
2019-05-09T17:42:45.072Z,11.9
2019-05-09T17:47:48.562Z,11.7
2019-05-09T17:52:49.607Z,11.6
2019-05-09T17:57:51.995Z,11.6
2019-05-09T18:02:54.168Z,11.6
2019-05-09T19:05:49.649Z,11.2
2019-05-09T19:15:58.103Z,11.3
2019-05-09T19:20:55.963Z,11.3
2019-05-09T19:25:58.062Z,11.2
2019-05-09T19:31:00.312Z,11.2
2019-05-09T19:36:02.696Z,11.1
2019-05-09T19:41:04.947Z,11.1
2019-05-09T19:46:07.210Z,11.1
2019-05-09T19:51:09.509Z,11.2
2019-05-09T19:56:11.949Z,11.2
2019-05-09T20:01:14.268Z,11.1
2019-05-09T20:06:16.732Z,11.1
2019-05-09T20:11:18.633Z,11.1
2019-05-09T20:16:21.076Z,11.1
2019-05-09T20:21:23.291Z,11
2019-05-09T20:26:25.676Z,11
2019-05-09T20:31:27.948Z,11
2019-05-09T20:36:30.405Z,10.9
2019-05-09T20:41:32.517Z,10.9
2019-05-09T20:46:34.725Z,10.9
2019-05-09T20:51:37.135Z,10.9
2019-05-09T20:56:39.445Z,10.9
2019-05-09T21:01:41.754Z,10.9
2019-05-09T21:06:44.076Z,10.9
2019-05-09T21:11:46.270Z,10.9
2019-05-09T21:16:48.960Z,10.9
2019-05-09T21:21:50.916Z,10.9
2019-05-09T21:26:53.173Z,10.9
2019-05-09T21:31:55.431Z,10.9
2019-05-09T21:36:57.866Z,10.9
2019-05-09T21:42:00.007Z,10.8
2019-05-09T21:47:02.571Z,10.9
2019-05-09T21:52:04.630Z,10.9
2019-05-09T21:57:07.023Z,10.9
2019-05-09T22:02:09.374Z,10.9
2019-05-09T22:07:11.599Z,10.8
2019-05-09T22:12:14.842Z,10.8
2019-05-09T22:17:16.318Z,10.7
2019-05-09T22:22:18.499Z,10.7
2019-05-09T22:27:20.872Z,10.7
2019-05-09T22:32:24.190Z,10.7
2019-05-09T22:37:25.410Z,10.7
2019-05-09T22:42:27.500Z,10.7
2019-05-09T22:47:29.862Z,10.7
2019-05-09T22:52:32.301Z,10.7
2019-05-09T22:57:34.684Z,10.7
2019-05-09T23:02:36.873Z,10.7
2019-05-09T23:07:39.074Z,10.6
2019-05-09T23:12:41.447Z,10.4
2019-05-09T23:17:43.591Z,10.3
2019-05-09T23:22:46.996Z,10.1
2019-05-09T23:27:51.049Z,9.9
2019-05-09T23:32:50.649Z,9.8
2019-05-09T23:37:52.900Z,9.7
2019-05-09T23:42:55.071Z,9.7
2019-05-09T23:47:57.483Z,9.7
2019-05-09T23:52:59.791Z,9.6
2019-05-09T23:58:02.084Z,9.7
